The Hangar Logo

METARs in Plain English
Latest METAR information for EGVN - BRIZE NORTON

EGVN 192350Z 00000KT CAVOK 09/08 Q1020 NOSIG

In plain english is....

This is a METAR report for EGVN - BRIZE NORTON .
The report was made 25 minutes ago, at 23:50 UTC.
The wind was calm.
The visibility was greater than 6.2 miles (greater than 10 kilometres).
There were no clouds below 5,000 feet (1,524 metres).
The temperature was 9°C (48°F), a dew point of 8°C (46°F) and a relative humidity of 93.4%.
The altimeter setting (airfield QNH) was 1,020 hPa (30.12 inHg).
Other remarks NOSIG.

UK Mainland

Ireland

Channel Islands

France

Other



Enter
Tel: 07092 887559 - Fax: 07092 183262

Content copyright © 1999-2016 TheHangar.co.uk. All rights reserved.
Please send your questions, comments, or bug reports to the Webmaster.